Time,TemperatureF,DewpointF,PressureIn,WindDirection,WindDirectionDegrees,WindSpeedMPH,WindSpeedGustMPH,Humidity,HourlyPrecipIn,Conditions,Clouds,dailyrainin,SoftwareType,DateUTC
2013-01-30 00:00:00,32.0,28.3,29.96,NE,45,0.0,0.0,86,0.04,,---,0.10,VWS V14.01,2013-01-30 05:00:00,
2013-01-30 00:03:00,32.0,28.3,29.97,NE,45,0.0,0.0,86,0.04,,---,0.00,VWS V14.01,2013-01-30 05:03:00,
2013-01-30 00:08:00,32.0,28.3,29.97,NE,45,0.0,0.0,86,0.04,,---,0.00,VWS V14.01,2013-01-30 05:08:00,
2013-01-30 00:13:00,32.0,28.3,29.97,NE,45,0.0,0.0,86,0.04,,---,0.00,VWS V14.01,2013-01-30 05:13:00,
2013-01-30 00:18:00,32.0,28.3,29.97,NE,45,0.0,0.0,86,0.04,,---,0.00,VWS V14.01,2013-01-30 05:18:00,
2013-01-30 00:23:00,32.1,28.4,29.96,NE,45,0.0,0.0,86,0.04,,---,0.00,VWS V14.01,2013-01-30 05:23:00,
2013-01-30 00:28:00,32.1,28.4,29.95,NE,45,0.0,0.0,86,0.06,,---,0.04,VWS V14.01,2013-01-30 05:28:00,
2013-01-30 00:33:00,32.1,28.4,29.96,NE,45,0.0,0.0,86,0.06,,---,0.04,VWS V14.01,2013-01-30 05:33:00,
2013-01-30 00:38:00,32.1,28.4,29.96,NE,45,0.0,0.0,86,0.06,,---,0.04,VWS V14.01,2013-01-30 05:38:00,
2013-01-30 00:43:00,32.1,28.4,29.95,NE,45,0.0,0.0,86,0.06,,---,0.04,VWS V14.01,2013-01-30 05:43:00,
2013-01-30 00:48:00,32.1,28.4,29.96,NE,45,0.0,0.0,86,0.06,,---,0.04,VWS V14.01,2013-01-30 05:48:00,
2013-01-30 00:53:00,32.1,28.4,29.94,NE,45,0.0,0.0,86,0.06,,---,0.04,VWS V14.01,2013-01-30 05:53:00,
2013-01-30 00:58:00,32.1,28.4,29.94,NE,45,0.0,0.0,86,0.04,,---,0.04,VWS V14.01,2013-01-30 05:58:00,
2013-01-30 01:03:00,32.1,28.4,29.94,NE,45,0.0,0.0,86,0.06,,---,0.06,VWS V14.01,2013-01-30 06:03:00,
2013-01-30 01:08:00,32.1,28.4,29.94,NE,45,0.0,0.0,86,0.06,,---,0.06,VWS V14.01,2013-01-30 06:08:00,
2013-01-30 01:13:00,32.1,28.7,29.94,NE,45,0.0,0.0,87,0.06,,---,0.06,VWS V14.01,2013-01-30 06:13:00,
2013-01-30 01:18:00,32.1,28.7,29.94,NE,45,0.0,0.0,87,0.06,,---,0.06,VWS V14.01,2013-01-30 06:18:00,
2013-01-30 01:23:00,32.1,28.7,29.93,NE,45,0.0,0.0,87,0.06,,---,0.06,VWS V14.01,2013-01-30 06:23:00,
2013-01-30 01:28:00,32.3,28.9,29.93,NE,45,0.0,0.0,87,0.02,,---,0.06,VWS V14.01,2013-01-30 06:28:00,
2013-01-30 01:33:00,32.3,28.9,29.92,NE,45,0.0,0.0,87,0.02,,---,0.06,VWS V14.01,2013-01-30 06:33:00,
2013-01-30 01:38:00,32.1,28.7,29.92,NE,45,0.0,0.0,87,0.04,,---,0.08,VWS V14.01,2013-01-30 06:38:00,
2013-01-30 01:43:00,32.1,28.7,29.92,NE,45,0.0,0.0,87,0.04,,---,0.08,VWS V14.01,2013-01-30 06:43:00,
2013-01-30 01:48:00,32.1,28.7,29.92,NE,45,0.0,0.0,87,0.04,,---,0.08,VWS V14.01,2013-01-30 06:48:00,
2013-01-30 01:53:00,32.3,28.9,29.91,NE,45,0.0,0.0,87,0.04,,---,0.08,VWS V14.01,2013-01-30 06:53:00,
2013-01-30 01:58:00,32.3,28.9,29.91,NE,45,0.0,0.0,87,0.06,,---,0.10,VWS V14.01,2013-01-30 06:58:00,
2013-01-30 02:03:00,32.3,28.9,29.91,NE,45,0.0,0.0,87,0.04,,---,0.10,VWS V14.01,2013-01-30 07:03:00,
2013-01-30 02:08:00,32.3,28.9,29.91,NE,45,0.0,0.0,87,0.04,,---,0.10,VWS V14.01,2013-01-30 07:08:00,
2013-01-30 02:13:00,32.5,29.1,29.91,NE,45,0.0,0.0,87,0.04,,---,0.10,VWS V14.01,2013-01-30 07:13:00,
2013-01-30 02:18:00,32.5,29.1,29.91,NE,45,0.0,0.0,87,0.04,,---,0.10,VWS V14.01,2013-01-30 07:18:00,
2013-01-30 02:23:00,32.5,29.1,29.91,NE,45,0.0,0.0,87,0.06,,---,0.12,VWS V14.01,2013-01-30 07:23:00,
2013-01-30 02:28:00,32.5,29.1,29.91,NE,45,0.0,0.0,87,0.06,,---,0.12,VWS V14.01,2013-01-30 07:28:00,
2013-01-30 02:33:00,32.5,29.1,29.90,NE,45,0.0,0.0,87,0.06,,---,0.12,VWS V14.01,2013-01-30 07:33:00,
2013-01-30 02:38:00,32.5,29.1,29.90,NE,45,0.0,0.0,87,0.04,,---,0.12,VWS V14.01,2013-01-30 07:38:00,
2013-01-30 02:43:00,32.5,29.1,29.90,NE,45,0.0,0.0,87,0.04,,---,0.12,VWS V14.01,2013-01-30 07:43:00,
2013-01-30 02:48:00,32.5,29.1,29.89,NE,45,0.0,0.0,87,0.04,,---,0.12,VWS V14.01,2013-01-30 07:48:00,
2013-01-30 02:53:00,32.5,29.1,29.89,NE,45,0.0,0.0,87,0.04,,---,0.12,VWS V14.01,2013-01-30 07:53:00,
2013-01-30 02:58:00,32.5,29.1,29.89,NE,45,0.0,0.0,87,0.04,,---,0.14,VWS V14.01,2013-01-30 07:58:00,
2013-01-30 03:03:00,32.5,29.1,29.89,NE,45,0.0,0.0,87,0.04,,---,0.14,VWS V14.01,2013-01-30 08:03:00,
2013-01-30 03:08:00,32.5,29.1,29.88,NE,45,0.0,0.0,87,0.04,,---,0.14,VWS V14.01,2013-01-30 08:08:00,
2013-01-30 03:13:00,32.5,29.1,29.88,NE,45,0.0,0.0,87,0.04,,---,0.14,VWS V14.01,2013-01-30 08:13:00,
2013-01-30 03:18:00,32.5,29.1,29.88,NE,45,0.0,0.0,87,0.04,,---,0.14,VWS V14.01,2013-01-30 08:18:00,
2013-01-30 03:23:00,32.5,29.1,29.87,NE,45,0.0,0.0,87,0.02,,---,0.14,VWS V14.01,2013-01-30 08:23:00,
2013-01-30 03:28:00,32.5,29.1,29.86,NE,45,0.0,0.0,87,0.02,,---,0.14,VWS V14.01,2013-01-30 08:28:00,
2013-01-30 03:33:00,32.5,29.4,29.87,NE,45,0.0,0.0,88,0.02,,---,0.14,VWS V14.01,2013-01-30 08:33:00,
2013-01-30 03:38:00,32.5,29.4,29.86,NE,45,0.0,0.0,88,0.02,,---,0.14,VWS V14.01,2013-01-30 08:38:00,
2013-01-30 03:43:00,32.5,29.4,29.86,NE,45,0.0,0.0,88,0.02,,---,0.14,VWS V14.01,2013-01-30 08:43:00,
2013-01-30 03:48:00,32.5,29.4,29.86,NE,45,0.0,0.0,88,0.02,,---,0.14,VWS V14.01,2013-01-30 08:48:00,
2013-01-30 03:53:00,32.5,29.4,29.86,NE,45,0.0,0.0,88,0.02,,---,0.14,VWS V14.01,2013-01-30 08:53:00,
2013-01-30 03:58:00,32.5,29.4,29.85,NE,45,0.0,0.0,88,0.00,,---,0.14,VWS V14.01,2013-01-30 08:58:00,
2013-01-30 04:03:00,32.5,29.4,29.85,NE,45,0.0,0.0,88,0.00,,---,0.14,VWS V14.01,2013-01-30 09:03:00,
2013-01-30 04:08:00,32.5,29.4,29.85,NE,45,0.0,0.0,88,0.00,,---,0.14,VWS V14.01,2013-01-30 09:08:00,
2013-01-30 04:13:00,32.3,29.1,29.85,NE,45,0.0,0.0,88,0.00,,---,0.14,VWS V14.01,2013-01-30 09:13:00,
2013-01-30 04:18:00,32.3,29.1,29.84,NE,45,0.0,0.0,88,0.00,,---,0.14,VWS V14.01,2013-01-30 09:18:00,
2013-01-30 04:23:00,32.3,29.1,29.84,NE,45,0.0,0.0,88,0.00,,---,0.14,VWS V14.01,2013-01-30 09:23:00,
2013-01-30 04:28:00,32.3,29.1,29.84,NE,45,0.0,0.0,88,0.00,,---,0.14,VWS V14.01,2013-01-30 09:28:00,
2013-01-30 04:33:00,32.1,29.0,29.83,NE,45,0.0,0.0,88,0.00,,---,0.14,VWS V14.01,2013-01-30 09:33:00,
2013-01-30 04:38:00,32.1,29.0,29.84,NE,45,0.0,0.0,88,0.00,,---,0.14,VWS V14.01,2013-01-30 09:38:00,
2013-01-30 04:43:00,32.1,29.0,29.83,NE,45,0.0,0.0,88,0.00,,---,0.14,VWS V14.01,2013-01-30 09:43:00,
2013-01-30 04:48:00,32.1,29.0,29.83,NE,45,0.0,0.0,88,0.00,,---,0.14,VWS V14.01,2013-01-30 09:48:00,
2013-01-30 04:53:00,32.1,28.7,29.82,NE,45,0.0,0.0,87,0.00,,---,0.14,VWS V14.01,2013-01-30 09:53:00,
2013-01-30 04:58:00,32.1,29.0,29.81,NE,45,0.0,0.0,88,0.00,,---,0.14,VWS V14.01,2013-01-30 09:58:00,
2013-01-30 05:03:00,32.1,29.0,29.81,NE,45,0.0,0.0,88,0.00,,---,0.14,VWS V14.01,2013-01-30 10:03:00,
2013-01-30 05:08:00,32.1,29.0,29.81,NE,45,0.0,0.0,88,0.00,,---,0.14,VWS V14.01,2013-01-30 10:08:00,
2013-01-30 05:13:00,32.0,28.9,29.81,ENE,68,0.0,0.0,88,0.00,,---,0.14,VWS V14.01,2013-01-30 10:13:00,
2013-01-30 05:18:00,31.8,28.7,29.80,ENE,68,0.0,0.0,88,0.00,,---,0.14,VWS V14.01,2013-01-30 10:18:00,
2013-01-30 05:23:00,31.8,28.7,29.80,ENE,68,0.0,0.0,88,0.00,,---,0.14,VWS V14.01,2013-01-30 10:23:00,
2013-01-30 05:28:00,31.8,28.7,29.79,ENE,68,0.0,0.0,88,0.00,,---,0.14,VWS V14.01,2013-01-30 10:28:00,
2013-01-30 05:33:00,31.8,28.7,29.79,ENE,68,0.0,0.0,88,0.00,,---,0.14,VWS V14.01,2013-01-30 10:33:00,
2013-01-30 05:38:00,31.8,28.7,29.78,ENE,68,0.0,0.0,88,0.00,,---,0.14,VWS V14.01,2013-01-30 10:38:00,
2013-01-30 05:43:00,31.8,28.7,29.78,ENE,68,0.0,0.0,88,0.00,,---,0.14,VWS V14.01,2013-01-30 10:43:00,
2013-01-30 05:48:00,31.6,28.5,29.78,ENE,68,0.0,0.0,88,0.00,,---,0.14,VWS V14.01,2013-01-30 10:48:00,
2013-01-30 05:53:00,31.6,28.5,29.77,ENE,68,0.0,0.0,88,0.00,,---,0.14,VWS V14.01,2013-01-30 10:53:00,
2013-01-30 05:58:00,31.6,28.5,29.77,ENE,68,0.0,0.0,88,0.00,,---,0.14,VWS V14.01,2013-01-30 10:58:00,
2013-01-30 06:03:00,31.6,28.5,29.76,SE,135,0.0,0.0,88,0.00,,---,0.14,VWS V14.01,2013-01-30 11:03:00,
2013-01-30 06:08:00,31.8,28.7,29.76,SW,225,0.0,0.0,88,0.00,,---,0.14,VWS V14.01,2013-01-30 11:08:00,
2013-01-30 06:13:00,32.1,29.0,29.76,West,270,0.0,0.0,88,0.00,,---,0.14,VWS V14.01,2013-01-30 11:13:00,
2013-01-30 06:18:00,32.1,29.0,29.76,SE,135,0.0,0.0,88,0.00,,---,0.14,VWS V14.01,2013-01-30 11:18:00,
2013-01-30 06:23:00,32.5,29.6,29.76,NNW,338,0.0,0.0,89,0.00,,---,0.14,VWS V14.01,2013-01-30 11:23:00,
2013-01-30 06:28:00,32.5,29.6,29.75,NNW,338,0.0,0.0,89,0.00,,---,0.14,VWS V14.01,2013-01-30 11:28:00,
2013-01-30 06:33:00,32.3,29.4,29.75,NW,315,0.0,0.0,89,0.00,,---,0.14,VWS V14.01,2013-01-30 11:33:00,
2013-01-30 06:38:00,32.3,29.4,29.75,NW,315,0.0,0.0,89,0.00,,---,0.14,VWS V14.01,2013-01-30 11:38:00,
2013-01-30 06:43:00,32.3,29.4,29.75,WNW,292,0.0,0.0,89,0.00,,---,0.14,VWS V14.01,2013-01-30 11:43:00,
2013-01-30 06:48:00,32.3,29.4,29.74,WNW,292,0.0,0.0,89,0.00,,---,0.14,VWS V14.01,2013-01-30 11:48:00,
2013-01-30 06:53:00,32.3,29.4,29.74,WNW,292,0.0,0.0,89,0.00,,---,0.14,VWS V14.01,2013-01-30 11:53:00,
2013-01-30 06:58:00,32.5,29.6,29.74,SW,225,0.0,0.0,89,0.00,,---,0.14,VWS V14.01,2013-01-30 11:58:00,
2013-01-30 07:03:00,32.7,29.8,29.75,SSE,158,0.0,0.0,89,0.00,,---,0.14,VWS V14.01,2013-01-30 12:03:00,
2013-01-30 07:08:00,33.0,30.1,29.75,SSE,158,0.0,0.0,89,0.00,,---,0.14,VWS V14.01,2013-01-30 12:08:00,
2013-01-30 07:13:00,33.4,30.5,29.74,WNW,292,0.0,0.0,89,0.00,,---,0.14,VWS V14.01,2013-01-30 12:13:00,
2013-01-30 07:18:00,33.4,30.5,29.74,SSW,202,0.0,0.0,89,0.00,,---,0.14,VWS V14.01,2013-01-30 12:18:00,
2013-01-30 07:23:00,33.6,30.7,29.74,NNE,22,0.0,0.0,89,0.00,,---,0.14,VWS V14.01,2013-01-30 12:23:00,
2013-01-30 07:28:00,33.6,30.7,29.74,NW,315,0.0,0.0,89,0.00,,---,0.14,VWS V14.01,2013-01-30 12:28:00,
2013-01-30 07:33:00,33.6,30.7,29.74,NW,315,0.0,0.0,89,0.00,,---,0.14,VWS V14.01,2013-01-30 12:33:00,
2013-01-30 07:38:00,33.6,30.7,29.74,NW,315,0.0,0.0,89,0.02,,---,0.16,VWS V14.01,2013-01-30 12:38:00,
2013-01-30 07:43:00,33.4,30.5,29.73,NW,315,0.0,0.0,89,0.02,,---,0.16,VWS V14.01,2013-01-30 12:43:00,
2013-01-30 07:48:00,33.2,30.3,29.73,NW,315,0.0,0.0,89,0.02,,---,0.16,VWS V14.01,2013-01-30 12:48:00,
2013-01-30 07:53:00,33.4,30.5,29.73,NW,315,0.0,0.0,89,0.02,,---,0.16,VWS V14.01,2013-01-30 12:53:00,
2013-01-30 07:58:00,33.6,30.7,29.73,NW,315,0.0,0.0,89,0.02,,---,0.16,VWS V14.01,2013-01-30 12:58:00,
2013-01-30 08:03:00,33.8,30.9,29.73,NW,315,0.0,0.0,89,0.02,,---,0.16,VWS V14.01,2013-01-30 13:03:00,
2013-01-30 08:08:00,33.6,30.7,29.73,NW,315,0.0,0.0,89,0.02,,---,0.16,VWS V14.01,2013-01-30 13:08:00,
2013-01-30 08:13:00,33.8,30.9,29.73,ENE,68,0.0,0.0,89,0.02,,---,0.16,VWS V14.01,2013-01-30 13:13:00,
2013-01-30 08:18:00,33.8,30.9,29.71,ENE,68,0.0,0.0,89,0.02,,---,0.16,VWS V14.01,2013-01-30 13:18:00,
2013-01-30 08:23:00,33.8,30.9,29.71,East,90,0.0,0.0,89,0.02,,---,0.16,VWS V14.01,2013-01-30 13:23:00,
2013-01-30 08:28:00,33.9,31.0,29.71,ESE,112,0.0,0.0,89,0.02,,---,0.16,VWS V14.01,2013-01-30 13:28:00,
2013-01-30 08:33:00,33.9,31.0,29.71,ESE,112,0.0,0.0,89,0.02,,---,0.16,VWS V14.01,2013-01-30 13:33:00,
2013-01-30 08:38:00,34.1,31.2,29.71,ESE,112,0.0,0.0,89,0.00,,---,0.16,VWS V14.01,2013-01-30 13:38:00,
2013-01-30 08:43:00,34.3,31.4,29.71,SE,135,0.0,0.0,89,0.00,,---,0.16,VWS V14.01,2013-01-30 13:43:00,
2013-01-30 08:48:00,34.3,31.7,29.71,SE,135,0.0,0.0,90,0.00,,---,0.16,VWS V14.01,2013-01-30 13:48:00,
2013-01-30 08:53:00,34.3,31.7,29.70,SE,135,0.0,0.0,90,0.00,,---,0.16,VWS V14.01,2013-01-30 13:53:00,
2013-01-30 08:58:00,34.3,31.7,29.70,SE,135,0.0,0.0,90,0.02,,---,0.18,VWS V14.01,2013-01-30 13:58:00,
2013-01-30 09:03:00,34.5,31.9,29.69,SE,135,0.0,0.0,90,0.02,,---,0.18,VWS V14.01,2013-01-30 14:03:00,
2013-01-30 09:08:00,34.8,32.2,29.68,SE,135,0.0,0.0,90,0.02,,---,0.18,VWS V14.01,2013-01-30 14:08:00,
2013-01-30 09:13:00,35.2,32.6,29.68,SE,135,2.2,2.2,90,0.02,,---,0.18,VWS V14.01,2013-01-30 14:13:00,
2013-01-30 09:18:00,35.7,33.1,29.68,SE,135,0.0,0.0,90,0.02,,---,0.18,VWS V14.01,2013-01-30 14:18:00,
2013-01-30 09:23:00,36.3,33.7,29.68,SE,135,0.0,0.0,90,0.04,,---,0.20,VWS V14.01,2013-01-30 14:23:00,
2013-01-30 09:28:00,36.8,34.2,29.69,WNW,292,0.0,0.0,90,0.04,,---,0.20,VWS V14.01,2013-01-30 14:28:00,
2013-01-30 09:33:00,36.8,34.2,29.68,WNW,292,0.0,0.0,90,0.04,,---,0.20,VWS V14.01,2013-01-30 14:33:00,
2013-01-30 09:38:00,37.0,34.3,29.68,WNW,292,0.0,0.0,90,0.04,,---,0.20,VWS V14.01,2013-01-30 14:38:00,
2013-01-30 09:43:00,37.2,34.5,29.68,WNW,292,0.0,0.0,90,0.04,,---,0.20,VWS V14.01,2013-01-30 14:43:00,
2013-01-30 09:48:00,37.2,34.5,29.68,WNW,292,0.0,0.0,90,0.06,,---,0.22,VWS V14.01,2013-01-30 14:48:00,
2013-01-30 09:53:00,37.2,34.5,29.68,WNW,292,0.0,0.0,90,0.06,,---,0.22,VWS V14.01,2013-01-30 14:53:00,
2013-01-30 09:58:00,37.5,34.8,29.68,WNW,292,0.0,0.0,90,0.04,,---,0.22,VWS V14.01,2013-01-30 14:58:00,
2013-01-30 10:03:00,37.9,35.2,29.67,SE,135,0.0,0.0,90,0.04,,---,0.22,VWS V14.01,2013-01-30 15:03:00,
2013-01-30 10:08:00,38.8,36.1,29.66,East,90,0.0,0.0,90,0.04,,---,0.22,VWS V14.01,2013-01-30 15:08:00,
2013-01-30 10:13:00,39.9,37.5,29.66,SE,135,0.0,0.0,91,0.06,,---,0.24,VWS V14.01,2013-01-30 15:13:00,
2013-01-30 10:18:00,41.0,38.3,29.66,SE,135,2.9,2.9,90,0.06,,---,0.24,VWS V14.01,2013-01-30 15:18:00,
2013-01-30 10:23:00,41.9,39.5,29.65,SE,135,0.0,0.0,91,0.06,,---,0.26,VWS V14.01,2013-01-30 15:23:00,
2013-01-30 10:28:00,42.6,40.2,29.65,SE,135,0.8,0.8,91,0.06,,---,0.26,VWS V14.01,2013-01-30 15:28:00,
2013-01-30 10:33:00,43.1,40.7,29.65,SE,135,0.0,0.0,91,0.06,,---,0.26,VWS V14.01,2013-01-30 15:33:00,
2013-01-30 10:38:00,43.7,41.2,29.65,SE,135,0.0,0.0,91,0.08,,---,0.28,VWS V14.01,2013-01-30 15:38:00,
2013-01-30 10:43:00,44.4,41.9,29.64,SE,135,0.0,0.0,91,0.08,,---,0.28,VWS V14.01,2013-01-30 15:43:00,
2013-01-30 10:48:00,44.7,42.2,29.63,SE,135,0.0,0.0,91,0.06,,---,0.28,VWS V14.01,2013-01-30 15:48:00,
2013-01-30 10:53:00,45.1,42.6,29.62,SE,135,0.6,0.6,91,0.06,,---,0.28,VWS V14.01,2013-01-30 15:53:00,
2013-01-30 10:58:00,45.6,43.1,29.62,SE,135,3.5,7.3,91,0.06,,---,0.28,VWS V14.01,2013-01-30 15:58:00,
2013-01-30 11:03:00,46.2,43.7,29.62,SE,135,2.0,2.0,91,0.06,,---,0.28,VWS V14.01,2013-01-30 16:03:00,
2013-01-30 11:08:00,46.7,44.2,29.61,SE,135,8.2,8.2,91,0.06,,---,0.28,VWS V14.01,2013-01-30 16:08:00,
2013-01-30 11:13:00,47.4,44.9,29.61,SE,135,0.0,0.0,91,0.04,,---,0.28,VWS V14.01,2013-01-30 16:13:00,
2013-01-30 11:18:00,48.0,45.5,29.60,SE,135,0.0,0.0,91,0.04,,---,0.28,VWS V14.01,2013-01-30 16:18:00,
2013-01-30 11:23:00,48.3,45.8,29.60,SE,135,0.0,0.0,91,0.02,,---,0.28,VWS V14.01,2013-01-30 16:23:00,
2013-01-30 11:28:00,48.9,46.4,29.60,SE,135,6.7,6.7,91,0.02,,---,0.28,VWS V14.01,2013-01-30 16:28:00,
2013-01-30 11:33:00,49.2,46.7,29.60,SSE,158,0.0,0.0,91,0.02,,---,0.28,VWS V14.01,2013-01-30 16:33:00,
2013-01-30 11:38:00,49.6,47.1,29.60,SE,135,0.0,0.0,91,0.00,,---,0.28,VWS V14.01,2013-01-30 16:38:00,
2013-01-30 11:43:00,49.8,47.0,29.59,SE,135,4.9,4.9,90,0.00,,---,0.28,VWS V14.01,2013-01-30 16:43:00,
2013-01-30 11:48:00,50.1,47.3,29.58,SE,135,8.2,8.2,90,0.00,,---,0.28,VWS V14.01,2013-01-30 16:48:00,
2013-01-30 11:53:00,50.5,47.7,29.59,SE,135,7.1,7.1,90,0.00,,---,0.28,VWS V14.01,2013-01-30 16:53:00,
2013-01-30 11:58:00,50.7,47.9,29.58,SE,135,10.9,10.9,90,0.00,,---,0.28,VWS V14.01,2013-01-30 16:58:00,
2013-01-30 12:03:00,50.9,47.8,29.57,SE,135,0.0,0.0,89,0.00,,---,0.28,VWS V14.01,2013-01-30 17:03:00,
2013-01-30 12:08:00,50.9,47.8,29.57,SE,135,0.0,0.0,89,0.00,,---,0.28,VWS V14.01,2013-01-30 17:08:00,
2013-01-30 12:13:00,50.9,47.8,29.57,SE,135,1.7,1.7,89,0.00,,---,0.28,VWS V14.01,2013-01-30 17:13:00,
2013-01-30 12:18:00,51.0,47.6,29.56,WSW,248,3.3,3.3,88,0.00,,---,0.28,VWS V14.01,2013-01-30 17:18:00,
2013-01-30 12:23:00,51.2,47.8,29.55,SE,135,2.9,2.9,88,0.00,,---,0.28,VWS V14.01,2013-01-30 17:23:00,
2013-01-30 12:28:00,51.8,48.7,29.55,South,180,3.1,3.1,89,0.00,,---,0.28,VWS V14.01,2013-01-30 17:28:00,
2013-01-30 12:33:00,52.1,48.7,29.55,SE,135,2.2,2.2,88,0.00,,---,0.28,VWS V14.01,2013-01-30 17:33:00,
2013-01-30 12:38:00,52.5,49.0,29.55,SSE,158,3.5,3.5,88,0.00,,---,0.28,VWS V14.01,2013-01-30 17:38:00,
2013-01-30 12:43:00,52.3,48.5,29.55,SSE,158,0.0,0.0,87,0.00,,---,0.28,VWS V14.01,2013-01-30 17:43:00,
2013-01-30 12:48:00,52.3,48.5,29.55,SE,135,0.0,0.0,87,0.00,,---,0.28,VWS V14.01,2013-01-30 17:48:00,
2013-01-30 12:53:00,52.3,48.2,29.54,SSE,158,0.0,0.0,86,0.00,,---,0.28,VWS V14.01,2013-01-30 17:53:00,
2013-01-30 12:58:00,52.1,48.0,29.54,SE,135,0.0,0.0,86,0.00,,---,0.28,VWS V14.01,2013-01-30 17:58:00,
2013-01-30 13:03:00,52.1,48.0,29.53,SE,135,0.0,0.0,86,0.00,,---,0.28,VWS V14.01,2013-01-30 18:03:00,
2013-01-30 13:08:00,51.9,47.8,29.54,SE,135,0.0,0.0,86,0.00,,---,0.28,VWS V14.01,2013-01-30 18:08:00,
2013-01-30 13:13:00,51.9,47.8,29.53,SE,135,0.0,0.0,86,0.00,,---,0.28,VWS V14.01,2013-01-30 18:13:00,
2013-01-30 13:18:00,52.3,48.2,29.52,SSE,158,0.0,0.0,86,0.00,,---,0.28,VWS V14.01,2013-01-30 18:18:00,
2013-01-30 13:23:00,52.5,48.4,29.53,ENE,68,0.0,0.0,86,0.00,,---,0.28,VWS V14.01,2013-01-30 18:23:00,
2013-01-30 13:28:00,52.5,48.4,29.53,NW,315,0.0,0.0,86,0.00,,---,0.28,VWS V14.01,2013-01-30 18:28:00,
2013-01-30 13:33:00,52.5,48.4,29.53,North,0,0.0,0.0,86,0.00,,---,0.28,VWS V14.01,2013-01-30 18:33:00,
2013-01-30 13:38:00,52.5,48.4,29.53,ESE,112,0.0,0.0,86,0.00,,---,0.28,VWS V14.01,2013-01-30 18:38:00,
2013-01-30 13:43:00,52.7,48.6,29.54,SE,135,1.1,1.1,86,0.00,,---,0.28,VWS V14.01,2013-01-30 18:43:00,
2013-01-30 13:48:00,52.7,48.6,29.53,NNW,338,0.0,0.0,86,0.02,,---,0.30,VWS V14.01,2013-01-30 18:48:00,
2013-01-30 13:53:00,52.7,48.6,29.53,NNW,338,0.0,0.0,86,0.02,,---,0.30,VWS V14.01,2013-01-30 18:53:00,
2013-01-30 13:58:00,52.7,48.6,29.54,NW,315,5.3,5.3,86,0.02,,---,0.30,VWS V14.01,2013-01-30 18:58:00,
2013-01-30 14:03:00,52.5,48.4,29.53,SSE,158,0.0,0.0,86,0.02,,---,0.30,VWS V14.01,2013-01-30 19:03:00,
2013-01-30 14:08:00,52.3,48.2,29.53,WNW,292,0.0,0.0,86,0.02,,---,0.30,VWS V14.01,2013-01-30 19:08:00,
2013-01-30 14:13:00,52.1,48.0,29.54,NNW,338,0.0,0.0,86,0.04,,---,0.33,VWS V14.01,2013-01-30 19:13:00,
2013-01-30 14:18:00,51.9,47.8,29.54,South,180,0.0,0.0,86,0.04,,---,0.33,VWS V14.01,2013-01-30 19:18:00,
2013-01-30 14:23:00,51.6,47.6,29.54,SSE,158,0.0,0.0,86,0.04,,---,0.33,VWS V14.01,2013-01-30 19:23:00,
2013-01-30 14:28:00,51.6,47.9,29.53,WNW,292,0.0,0.0,87,0.04,,---,0.33,VWS V14.01,2013-01-30 19:28:00,
2013-01-30 14:33:00,51.6,47.9,29.54,ESE,112,0.0,0.0,87,0.04,,---,0.33,VWS V14.01,2013-01-30 19:33:00,
2013-01-30 14:38:00,51.4,47.7,29.54,NW,315,0.0,0.0,87,0.04,,---,0.33,VWS V14.01,2013-01-30 19:38:00,
2013-01-30 14:43:00,51.4,47.7,29.54,NNE,22,0.0,0.0,87,0.04,,---,0.33,VWS V14.01,2013-01-30 19:43:00,
2013-01-30 14:48:00,51.4,47.7,29.53,SE,135,0.0,0.0,87,0.02,,---,0.33,VWS V14.01,2013-01-30 19:48:00,
2013-01-30 14:53:00,51.4,48.0,29.52,SE,135,8.0,8.0,88,0.02,,---,0.33,VWS V14.01,2013-01-30 19:53:00,
2013-01-30 14:58:00,51.4,48.0,29.52,SE,135,14.5,14.5,88,0.02,,---,0.00,VWS V14.01,2013-01-30 19:58:00,
2013-01-30 15:03:00,51.6,48.2,29.52,SSE,158,3.1,3.1,88,0.04,,---,0.35,VWS V14.01,2013-01-30 20:03:00,
2013-01-30 15:08:00,51.6,48.2,29.51,WSW,248,0.0,0.0,88,0.04,,---,0.35,VWS V14.01,2013-01-30 20:08:00,
2013-01-30 15:13:00,51.6,48.2,29.51,South,180,5.1,5.1,88,0.02,,---,0.35,VWS V14.01,2013-01-30 20:13:00,
2013-01-30 15:18:00,51.8,48.7,29.50,SE,135,7.8,7.8,89,0.02,,---,0.35,VWS V14.01,2013-01-30 20:18:00,
2013-01-30 15:23:00,51.9,48.8,29.50,SE,135,4.2,4.2,89,0.02,,---,0.35,VWS V14.01,2013-01-30 20:23:00,
2013-01-30 15:28:00,51.9,48.8,29.50,SSE,158,7.1,7.1,89,0.02,,---,0.35,VWS V14.01,2013-01-30 20:28:00,
2013-01-30 15:33:00,52.1,49.0,29.49,SE,135,5.1,5.1,89,0.02,,---,0.35,VWS V14.01,2013-01-30 20:33:00,
2013-01-30 15:38:00,52.3,49.2,29.49,SE,135,6.4,6.4,89,0.02,,---,0.35,VWS V14.01,2013-01-30 20:38:00,
2013-01-30 15:43:00,52.3,48.9,29.50,South,180,6.2,6.2,88,0.02,,---,0.35,VWS V14.01,2013-01-30 20:43:00,
2013-01-30 15:48:00,52.3,48.9,29.50,South,180,6.2,6.2,88,0.02,,---,0.35,VWS V14.01,2013-01-30 20:48:00,
2013-01-30 15:53:00,52.3,48.9,29.51,SSE,158,0.0,0.0,88,0.02,,---,0.35,VWS V14.01,2013-01-30 20:53:00,
2013-01-30 15:58:00,52.3,48.9,29.51,SE,135,0.0,0.0,88,0.02,,---,0.35,VWS V14.01,2013-01-30 20:58:00,
2013-01-30 16:03:00,52.3,48.9,29.52,NW,315,0.0,0.0,88,0.00,,---,0.35,VWS V14.01,2013-01-30 21:03:00,
2013-01-30 16:08:00,52.3,48.9,29.52,West,270,0.0,0.0,88,0.00,,---,0.35,VWS V14.01,2013-01-30 21:08:00,
2013-01-30 16:13:00,52.3,48.9,29.52,SE,135,0.0,0.0,88,0.00,,---,0.35,VWS V14.01,2013-01-30 21:13:00,
2013-01-30 16:18:00,52.3,48.9,29.51,SE,135,4.9,4.9,88,0.00,,---,0.35,VWS V14.01,2013-01-30 21:18:00,
2013-01-30 16:23:00,52.3,48.9,29.52,SSE,158,4.0,4.0,88,0.00,,---,0.35,VWS V14.01,2013-01-30 21:23:00,
2013-01-30 16:28:00,52.3,48.9,29.52,ENE,68,3.8,3.8,88,0.00,,---,0.35,VWS V14.01,2013-01-30 21:28:00,
2013-01-30 16:33:00,52.3,48.9,29.52,SE,135,2.0,2.0,88,0.00,,---,0.35,VWS V14.01,2013-01-30 21:33:00,
2013-01-30 16:38:00,52.3,48.9,29.52,SSE,158,1.7,1.7,88,0.00,,---,0.35,VWS V14.01,2013-01-30 21:38:00,
2013-01-30 16:43:00,52.3,48.9,29.53,SE,135,9.8,9.8,88,0.00,,---,0.35,VWS V14.01,2013-01-30 21:43:00,
2013-01-30 16:48:00,52.3,48.9,29.53,SE,135,6.0,6.0,88,0.00,,---,0.35,VWS V14.01,2013-01-30 21:48:00,
2013-01-30 16:53:00,52.3,48.9,29.53,SE,135,7.1,7.1,88,0.00,,---,0.35,VWS V14.01,2013-01-30 21:53:00,
2013-01-30 16:58:00,52.3,48.9,29.53,SE,135,9.8,9.8,88,0.00,,---,0.35,VWS V14.01,2013-01-30 21:58:00,
2013-01-30 17:03:00,52.3,48.9,29.52,SE,135,2.6,2.6,88,0.00,,---,0.35,VWS V14.01,2013-01-30 22:03:00,
2013-01-30 17:08:00,52.3,48.9,29.52,SSE,158,0.0,0.0,88,0.00,,---,0.35,VWS V14.01,2013-01-30 22:08:00,
2013-01-30 17:13:00,52.3,48.9,29.52,SSW,202,5.1,5.1,88,0.00,,---,0.35,VWS V14.01,2013-01-30 22:13:00,
2013-01-30 17:18:00,51.9,48.5,29.52,SE,135,6.2,6.2,88,0.00,,---,0.35,VWS V14.01,2013-01-30 22:18:00,
2013-01-30 17:23:00,51.9,48.5,29.51,SE,135,0.0,0.0,88,0.00,,---,0.35,VWS V14.01,2013-01-30 22:23:00,
2013-01-30 17:28:00,51.9,48.5,29.51,SSE,158,7.3,7.3,88,0.00,,---,0.35,VWS V14.01,2013-01-30 22:28:00,
2013-01-30 17:33:00,52.1,48.7,29.51,SE,135,0.0,0.0,88,0.00,,---,0.35,VWS V14.01,2013-01-30 22:33:00,
2013-01-30 17:38:00,52.1,48.7,29.51,SE,135,8.2,8.2,88,0.00,,---,0.35,VWS V14.01,2013-01-30 22:38:00,
2013-01-30 17:43:00,52.1,48.7,29.51,SSE,158,0.0,0.0,88,0.00,,---,0.35,VWS V14.01,2013-01-30 22:43:00,
2013-01-30 17:48:00,52.1,48.7,29.50,SE,135,9.1,9.1,88,0.00,,---,0.35,VWS V14.01,2013-01-30 22:48:00,
2013-01-30 17:53:00,52.1,48.7,29.50,SSE,158,0.0,0.0,88,0.00,,---,0.35,VWS V14.01,2013-01-30 22:53:00,
2013-01-30 17:58:00,51.9,48.5,29.50,SE,135,6.2,6.2,88,0.00,,---,0.35,VWS V14.01,2013-01-30 22:58:00,
2013-01-30 18:03:00,52.1,48.7,29.49,SE,135,4.4,4.4,88,0.00,,---,0.35,VWS V14.01,2013-01-30 23:03:00,
2013-01-30 18:08:00,52.1,48.7,29.49,East,90,0.0,0.0,88,0.02,,---,0.37,VWS V14.01,2013-01-30 23:08:00,
2013-01-30 18:13:00,52.1,48.7,29.49,SE,135,11.1,11.1,88,0.02,,---,0.37,VWS V14.01,2013-01-30 23:13:00,
2013-01-30 18:18:00,52.3,48.5,29.49,WNW,292,0.0,0.0,87,0.02,,---,0.37,VWS V14.01,2013-01-30 23:18:00,
2013-01-30 18:23:00,52.3,48.5,29.49,SE,135,10.2,10.2,87,0.02,,---,0.37,VWS V14.01,2013-01-30 23:23:00,
2013-01-30 18:28:00,52.3,48.5,29.49,SSE,158,12.0,12.0,87,0.02,,---,0.37,VWS V14.01,2013-01-30 23:28:00,
2013-01-30 18:33:00,52.5,48.4,29.50,SE,135,6.0,6.0,86,0.02,,---,0.37,VWS V14.01,2013-01-30 23:33:00,
2013-01-30 18:38:00,52.5,48.4,29.50,SSE,158,5.1,5.1,86,0.02,,---,0.37,VWS V14.01,2013-01-30 23:38:00,
2013-01-30 18:43:00,52.5,48.4,29.50,SE,135,6.9,6.9,86,0.02,,---,0.37,VWS V14.01,2013-01-30 23:43:00,
2013-01-30 18:48:00,52.3,48.2,29.50,SW,225,0.0,0.0,86,0.02,,---,0.37,VWS V14.01,2013-01-30 23:48:00,
2013-01-30 18:53:00,52.3,48.2,29.49,SE,135,5.5,5.5,86,0.02,,---,0.37,VWS V14.01,2013-01-30 23:53:00,
2013-01-30 18:58:00,52.3,48.2,29.49,SE,135,2.6,2.6,86,0.02,,---,0.37,VWS V14.01,2013-01-30 23:58:00,
2013-01-30 19:03:00,52.3,47.9,29.49,SE,135,2.4,2.4,85,0.02,,---,0.37,VWS V14.01,2013-01-31 00:03:00,
2013-01-30 19:08:00,52.1,47.7,29.48,SSE,158,0.0,0.0,85,0.00,,---,0.37,VWS V14.01,2013-01-31 00:08:00,
2013-01-30 19:13:00,51.9,47.8,29.49,SSW,202,2.9,2.9,86,0.00,,---,0.37,VWS V14.01,2013-01-31 00:13:00,
2013-01-30 19:18:00,51.9,47.8,29.50,SE,135,0.0,0.0,86,0.00,,---,0.37,VWS V14.01,2013-01-31 00:18:00,
2013-01-30 19:23:00,51.9,47.8,29.50,South,180,0.0,0.0,86,0.00,,---,0.37,VWS V14.01,2013-01-31 00:23:00,
2013-01-30 19:28:00,51.9,47.8,29.48,WNW,292,0.0,0.0,86,0.00,,---,0.37,VWS V14.01,2013-01-31 00:28:00,
2013-01-30 19:33:00,51.6,47.2,29.48,SE,135,0.0,0.0,85,0.00,,---,0.37,VWS V14.01,2013-01-31 00:33:00,
2013-01-30 19:38:00,51.6,47.2,29.47,South,180,1.7,1.7,85,0.00,,---,0.37,VWS V14.01,2013-01-31 00:38:00,
2013-01-30 19:43:00,51.4,47.4,29.48,ENE,68,0.0,0.0,86,0.00,,---,0.37,VWS V14.01,2013-01-31 00:43:00,
2013-01-30 19:48:00,51.4,47.4,29.48,SSE,158,0.0,0.0,86,0.00,,---,0.37,VWS V14.01,2013-01-31 00:48:00,
2013-01-30 19:53:00,51.0,46.7,29.48,SSW,202,0.0,0.0,85,0.00,,---,0.37,VWS V14.01,2013-01-31 00:53:00,
2013-01-30 20:00:00,50.9,46.6,29.48,South,180,3.5,3.5,85,0.00,,---,0.37,VWS V14.01,2013-01-31 01:00:00,
2013-01-30 20:05:00,50.7,46.4,29.49,NW,315,0.0,0.0,85,0.00,,---,0.37,VWS V14.01,2013-01-31 01:05:00,
2013-01-30 20:10:00,50.3,46.0,29.49,South,180,0.0,0.0,85,0.00,,---,0.37,VWS V14.01,2013-01-31 01:10:00,
2013-01-30 20:15:00,50.1,45.8,29.48,SSE,158,0.0,0.0,85,0.00,,---,0.37,VWS V14.01,2013-01-31 01:15:00,
2013-01-30 20:20:00,50.1,46.1,29.48,SE,135,0.0,0.0,86,0.00,,---,0.37,VWS V14.01,2013-01-31 01:20:00,
2013-01-30 20:25:00,50.3,46.3,29.47,South,180,0.0,0.0,86,0.00,,---,0.37,VWS V14.01,2013-01-31 01:25:00,
2013-01-30 20:30:00,50.5,46.5,29.46,SSE,158,1.7,1.7,86,0.00,,---,0.37,VWS V14.01,2013-01-31 01:30:00,
2013-01-30 20:35:00,50.5,46.8,29.47,SE,135,4.9,4.9,87,0.00,,---,0.37,VWS V14.01,2013-01-31 01:35:00,
2013-01-30 20:40:00,50.5,46.8,29.46,SE,135,7.8,7.8,87,0.00,,---,0.37,VWS V14.01,2013-01-31 01:40:00,
2013-01-30 20:45:00,50.5,46.8,29.47,SSE,158,0.0,0.0,87,0.00,,---,0.37,VWS V14.01,2013-01-31 01:45:00,
2013-01-30 20:50:00,50.7,47.0,29.45,SE,135,6.7,6.7,87,0.00,,---,0.37,VWS V14.01,2013-01-31 01:50:00,
2013-01-30 20:54:00,50.7,46.7,29.45,South,180,4.6,4.6,86,0.00,,---,0.37,VWS V14.01,2013-01-31 01:54:00,
2013-01-30 20:59:00,50.7,46.7,29.45,SE,135,8.5,8.5,86,0.00,,---,0.37,VWS V14.01,2013-01-31 01:59:00,
2013-01-30 21:04:00,50.7,46.7,29.45,SE,135,4.4,4.4,86,0.00,,---,0.37,VWS V14.01,2013-01-31 02:04:00,
2013-01-30 21:09:00,50.7,46.7,29.45,SSE,158,11.6,11.6,86,0.00,,---,0.37,VWS V14.01,2013-01-31 02:09:00,
2013-01-30 21:14:00,50.7,46.7,29.45,SE,135,7.3,7.3,86,0.00,,---,0.37,VWS V14.01,2013-01-31 02:14:00,
2013-01-30 21:19:00,50.7,46.7,29.45,SSE,158,4.2,4.2,86,0.00,,---,0.37,VWS V14.01,2013-01-31 02:19:00,
2013-01-30 21:24:00,50.5,46.5,29.45,South,180,0.0,0.0,86,0.00,,---,0.37,VWS V14.01,2013-01-31 02:24:00,
2013-01-30 21:29:00,50.5,46.5,29.45,SE,135,4.0,4.0,86,0.00,,---,0.37,VWS V14.01,2013-01-31 02:29:00,
2013-01-30 21:34:00,50.5,46.5,29.45,SE,135,4.0,4.0,86,0.00,,---,0.37,VWS V14.01,2013-01-31 02:34:00,
2013-01-30 21:39:00,50.5,46.5,29.45,SE,135,6.9,6.9,86,0.00,,---,0.37,VWS V14.01,2013-01-31 02:39:00,
2013-01-30 21:44:00,50.3,46.3,29.44,SE,135,6.7,6.7,86,0.00,,---,0.37,VWS V14.01,2013-01-31 02:44:00,
2013-01-30 21:49:00,50.1,46.1,29.43,SE,135,2.4,2.4,86,0.00,,---,0.37,VWS V14.01,2013-01-31 02:49:00,
2013-01-30 21:54:00,50.1,46.4,29.43,SE,135,0.0,0.0,87,0.02,,---,0.39,VWS V14.01,2013-01-31 02:54:00,
2013-01-30 21:59:00,49.8,46.1,29.42,NE,45,4.6,4.6,87,0.02,,---,0.39,VWS V14.01,2013-01-31 02:59:00,
2013-01-30 22:04:00,49.8,46.1,29.41,SE,135,6.9,6.9,87,0.02,,---,0.39,VWS V14.01,2013-01-31 03:04:00,
2013-01-30 22:09:00,49.8,46.1,29.42,SSE,158,10.2,10.2,87,0.02,,---,0.39,VWS V14.01,2013-01-31 03:09:00,
2013-01-30 22:14:00,49.8,46.1,29.41,SE,135,4.4,4.4,87,0.02,,---,0.39,VWS V14.01,2013-01-31 03:14:00,
2013-01-30 22:19:00,49.6,45.9,29.41,SE,135,0.0,0.0,87,0.02,,---,0.39,VWS V14.01,2013-01-31 03:19:00,
2013-01-30 22:24:00,49.6,45.9,29.40,SE,135,1.7,1.7,87,0.02,,---,0.39,VWS V14.01,2013-01-31 03:24:00,
2013-01-30 22:29:00,49.6,45.9,29.40,SE,135,8.0,8.0,87,0.04,,---,0.41,VWS V14.01,2013-01-31 03:29:00,
2013-01-30 22:34:00,49.6,45.9,29.39,SE,135,9.8,9.8,87,0.04,,---,0.41,VWS V14.01,2013-01-31 03:34:00,
2013-01-30 22:39:00,49.6,45.9,29.39,South,180,14.0,14.0,87,0.04,,---,0.41,VWS V14.01,2013-01-31 03:39:00,
2013-01-30 22:44:00,49.6,45.9,29.38,SE,135,9.1,9.1,87,0.04,,---,0.41,VWS V14.01,2013-01-31 03:44:00,
2013-01-30 22:49:00,49.4,46.0,29.38,SE,135,2.4,2.4,88,0.06,,---,0.43,VWS V14.01,2013-01-31 03:49:00,
2013-01-30 22:54:00,49.6,46.2,29.38,SE,135,4.6,4.6,88,0.04,,---,0.43,VWS V14.01,2013-01-31 03:54:00,
2013-01-30 22:59:00,49.6,46.2,29.37,SSE,158,0.0,0.0,88,0.04,,---,0.43,VWS V14.01,2013-01-31 03:59:00,
2013-01-30 23:04:00,49.4,46.0,29.37,SE,135,4.4,4.4,88,0.06,,---,0.45,VWS V14.01,2013-01-31 04:04:00,
2013-01-30 23:09:00,49.4,46.0,29.37,SE,135,0.0,0.0,88,0.06,,---,0.45,VWS V14.01,2013-01-31 04:09:00,
2013-01-30 23:14:00,49.2,45.8,29.38,SSW,202,0.0,0.0,88,0.06,,---,0.45,VWS V14.01,2013-01-31 04:14:00,
2013-01-30 23:19:00,49.2,45.8,29.38,SE,135,0.0,0.0,88,0.06,,---,0.45,VWS V14.01,2013-01-31 04:19:00,
2013-01-30 23:36:00,49.1,45.7,29.37,SE,135,0.0,0.0,88,0.10,,---,0.51,VWS V14.01,2013-01-31 04:36:00,
2013-01-30 23:41:00,48.9,45.5,29.37,NE,45,0.0,0.0,88,0.12,,---,0.53,VWS V14.01,2013-01-31 04:41:00,
2013-01-30 23:46:00,48.9,45.5,29.36,SE,135,0.0,0.0,88,0.10,,---,0.53,VWS V14.01,2013-01-31 04:46:00,
2013-01-30 23:51:00,48.7,45.3,29.36,SSE,158,0.0,0.0,88,0.13,,---,0.55,VWS V14.01,2013-01-31 04:51:00,
2013-01-30 23:56:00,48.7,45.3,29.35,SE,135,8.0,8.0,88,0.17,,---,0.59,VWS V14.01,2013-01-31 04:56:00,